createdAt,value
2023-04-18T00:03:16.129Z,8.69
2023-04-18T00:08:18.970Z,8.14
2023-04-18T00:13:21.733Z,8.38
2023-04-18T00:18:26.885Z,8.46
2023-04-18T00:23:30.452Z,8.32
2023-04-18T00:28:32.815Z,7.92
2023-04-18T00:33:35.580Z,7.73
2023-04-18T00:38:38.361Z,7.80
2023-04-18T00:43:43.113Z,7.84
2023-04-18T00:48:45.476Z,7.61
2023-04-18T00:53:48.311Z,7.77
2023-04-18T00:58:50.909Z,7.80
2023-04-18T01:03:54.074Z,7.81
2023-04-18T01:08:57.060Z,7.64
2023-04-18T01:14:05.888Z,7.28
2023-04-18T01:19:11.835Z,7.37
2023-04-18T01:24:18.294Z,7.22
2023-04-18T01:29:21.100Z,7.14
2023-04-18T01:34:25.404Z,7.07
2023-04-18T01:39:29.202Z,6.84
2023-04-18T01:44:31.959Z,6.73
2023-04-18T01:49:34.155Z,6.64
2023-04-18T01:54:36.792Z,6.67
2023-04-18T01:59:39.417Z,6.51
2023-04-18T02:04:42.851Z,6.53
2023-04-18T02:09:45.823Z,6.43
2023-04-18T02:14:52.902Z,6.46
2023-04-18T02:19:55.815Z,6.15
2023-04-18T02:24:58.525Z,6.19
2023-04-18T02:30:01.220Z,6.09
2023-04-18T02:35:04.201Z,5.88
2023-04-18T02:40:07.508Z,5.91
2023-04-18T02:45:10.768Z,5.75
2023-04-18T02:50:13.138Z,5.88
2023-04-18T02:55:15.526Z,5.68
2023-04-18T03:00:20.260Z,5.60
2023-04-18T03:05:34.879Z,5.59
2023-04-18T03:10:40.361Z,5.84
2023-04-18T03:15:44.036Z,5.79
2023-04-18T03:20:47.113Z,5.65
2023-04-18T03:25:51.798Z,6.06
2023-04-18T03:30:55.484Z,6.14
2023-04-18T03:35:59.697Z,6.13
2023-04-18T03:41:02.809Z,6.24
2023-04-18T03:46:09.333Z,6.23
2023-04-18T03:51:12.740Z,6.34
2023-04-18T03:56:15.586Z,6.15
2023-04-18T04:01:25.746Z,6.27
2023-04-18T04:06:29.656Z,6.37
2023-04-18T04:11:32.367Z,6.37
2023-04-18T04:16:35.138Z,5.93
2023-04-18T04:21:38.773Z,5.89
2023-04-18T04:26:44.744Z,5.75
2023-04-18T04:31:54.216Z,5.70
2023-04-18T04:37:05.432Z,5.83
2023-04-18T04:42:14.479Z,6.12
2023-04-18T04:47:27.777Z,6.13
2023-04-18T04:52:32.625Z,6.28
2023-04-18T04:57:38.790Z,6.09
2023-04-18T05:02:57.875Z,6.35
2023-04-18T05:08:02.439Z,6.40
2023-04-18T05:13:05.640Z,6.97
2023-04-18T05:24:48.137Z,7.31
2023-04-18T05:29:51.248Z,7.19
2023-04-18T05:34:53.937Z,7.50
2023-04-18T05:39:57.849Z,7.40
2023-04-18T05:45:02.246Z,8.19
2023-04-18T05:50:04.763Z,8.89
2023-04-18T05:55:07.952Z,8.96
2023-04-18T06:00:14.263Z,9.60
2023-04-18T06:05:17.374Z,10.36
2023-04-18T06:10:20.335Z,10.69
2023-04-18T06:15:23.021Z,11.80
2023-04-18T06:20:25.884Z,13.50
2023-04-18T06:25:28.742Z,14.03
2023-04-18T06:30:31.522Z,17.18
2023-04-18T06:35:34.141Z,22.87
2023-04-18T06:40:36.872Z,25.09
2023-04-18T06:45:39.493Z,25.87
2023-04-18T06:50:42.349Z,27.25
2023-04-18T06:55:45.255Z,27.65
2023-04-18T07:00:52.202Z,28.47
2023-04-18T07:05:55.928Z,26.94
2023-04-18T07:10:58.711Z,25.76
2023-04-18T07:16:01.817Z,24.84
2023-04-18T07:21:07.878Z,24.12
2023-04-18T07:26:13.949Z,24.45
2023-04-18T07:31:16.993Z,24.36
2023-04-18T07:36:19.978Z,22.66
2023-04-18T07:41:22.774Z,22.14
2023-04-18T07:46:25.572Z,22.06
2023-04-18T07:51:32.045Z,20.43
2023-04-18T07:56:34.918Z,20.43
2023-04-18T08:01:37.256Z,21.01
2023-04-18T08:06:39.926Z,20.00
2023-04-18T08:11:43.684Z,21.02
2023-04-18T08:16:46.730Z,20.97
2023-04-18T08:21:52.532Z,20.94
2023-04-18T08:26:54.969Z,20.53
2023-04-18T08:31:57.888Z,20.50
2023-04-18T08:37:00.540Z,20.10
2023-04-18T08:42:06.641Z,19.72
2023-04-18T08:47:10.188Z,19.87
2023-04-18T08:52:14.692Z,19.92
2023-04-18T08:57:23.972Z,20.38
2023-04-18T09:02:45.260Z,20.07
2023-04-18T09:07:49.773Z,19.36
2023-04-18T09:12:52.553Z,19.49
2023-04-18T09:18:02.629Z,20.35
2023-04-18T09:23:15.008Z,21.01
2023-04-18T09:28:29.205Z,19.90
2023-04-18T09:33:33.323Z,19.17
2023-04-18T09:38:41.453Z,18.50
2023-04-18T09:43:46.281Z,18.22
2023-04-18T09:48:49.257Z,17.86
2023-04-18T09:53:52.860Z,17.52
2023-04-18T09:59:09.983Z,17.20
2023-04-18T10:04:14.026Z,16.87
2023-04-18T10:09:17.679Z,16.61
2023-04-18T10:14:20.961Z,16.42
2023-04-18T10:19:26.270Z,15.49
2023-04-18T10:24:53.691Z,14.71
2023-04-18T10:29:56.882Z,13.42
2023-04-18T10:35:01.034Z,13.41
2023-04-18T10:40:07.293Z,12.83
2023-04-18T10:45:23.878Z,12.38
2023-04-18T10:50:26.678Z,11.86
2023-04-18T10:55:32.030Z,11.78
2023-04-18T11:00:35.002Z,11.76
2023-04-18T11:05:37.841Z,11.36
2023-04-18T11:10:41.059Z,11.40
2023-04-18T11:15:43.802Z,11.34
2023-04-18T11:20:51.113Z,11.60
2023-04-18T11:25:57.035Z,11.35
2023-04-18T11:31:03.183Z,11.17
2023-04-18T11:36:06.353Z,11.09
2023-04-18T11:41:15.738Z,11.36
2023-04-18T11:46:18.672Z,11.37
2023-04-18T11:51:45.145Z,11.88
2023-04-18T11:56:49.156Z,12.19
2023-04-18T12:02:14.803Z,12.54
2023-04-18T12:07:33.552Z,12.73
2023-04-18T12:12:36.833Z,12.69
2023-04-18T12:17:40.134Z,13.03
2023-04-18T12:22:49.832Z,13.72
2023-04-18T12:28:01.093Z,13.82
2023-04-18T12:33:04.524Z,13.65
2023-04-18T12:38:07.193Z,13.33
2023-04-18T12:43:10.000Z,13.41
2023-04-18T12:48:12.989Z,12.89
2023-04-18T12:53:15.268Z,12.48
2023-04-18T12:58:19.045Z,12.31
2023-04-18T13:03:21.943Z,11.64
2023-04-18T13:08:24.992Z,11.70
2023-04-18T13:13:27.923Z,11.69
2023-04-18T13:18:30.769Z,11.40
2023-04-18T13:23:33.550Z,11.71
2023-04-18T13:28:36.426Z,11.55
2023-04-18T13:33:40.661Z,11.53
2023-04-18T13:38:43.319Z,11.53
2023-04-18T13:43:46.101Z,11.50
2023-04-18T13:48:48.404Z,11.21
2023-04-18T13:53:52.052Z,11.04
2023-04-18T13:58:55.146Z,11.39
2023-04-18T14:03:58.251Z,11.32
2023-04-18T14:09:01.111Z,11.54
2023-04-18T14:14:04.015Z,11.83
2023-04-18T14:19:06.971Z,12.15
2023-04-18T14:24:10.023Z,12.02
2023-04-18T14:29:14.629Z,12.14
2023-04-18T14:34:17.449Z,11.99
2023-04-18T14:39:20.251Z,11.78
2023-04-18T14:44:23.010Z,11.91
2023-04-18T14:49:26.534Z,12.06
2023-04-18T14:54:30.475Z,11.63
2023-04-18T14:59:34.825Z,11.66
2023-04-18T15:04:37.956Z,11.95
2023-04-18T15:09:41.102Z,11.56
2023-04-18T15:14:43.390Z,11.64
2023-04-18T15:19:46.844Z,11.77
2023-04-18T15:24:49.364Z,11.59
2023-04-18T15:29:53.089Z,11.29
2023-04-18T15:34:55.753Z,11.23
2023-04-18T15:39:58.476Z,11.11
2023-04-18T15:45:01.328Z,10.79
2023-04-18T15:50:04.391Z,10.94
2023-04-18T15:55:07.724Z,10.88
2023-04-18T16:00:16.389Z,10.61
2023-04-18T16:05:19.729Z,10.26
2023-04-18T16:10:24.771Z,10.18
2023-04-18T16:15:32.380Z,10.12
2023-04-18T16:20:34.942Z,10.12
2023-04-18T16:25:37.639Z,9.99
2023-04-18T16:30:40.401Z,10.04
2023-04-18T16:35:43.316Z,10.04
2023-04-18T16:40:46.189Z,9.95
2023-04-18T16:45:48.891Z,9.94
2023-04-18T16:50:51.755Z,9.80
2023-04-18T16:55:54.919Z,9.80
2023-04-18T17:00:57.723Z,9.86
2023-04-18T17:06:01.792Z,9.90
2023-04-18T17:11:04.757Z,9.88
2023-04-18T17:16:07.808Z,9.81
2023-04-18T17:21:12.856Z,9.83
2023-04-18T17:26:15.574Z,9.92
2023-04-18T17:31:18.307Z,9.92
2023-04-18T17:36:21.642Z,9.89
2023-04-18T17:41:24.500Z,9.89
2023-04-18T17:46:27.137Z,9.96
2023-04-18T17:51:33.150Z,9.98
2023-04-18T17:56:44.343Z,9.92
2023-04-18T18:01:48.821Z,9.70
2023-04-18T18:06:55.769Z,9.80
2023-04-18T18:11:59.316Z,9.68
2023-04-18T18:17:02.940Z,9.87
2023-04-18T18:22:06.921Z,10.01
2023-04-18T18:27:12.947Z,9.75
2023-04-18T18:32:17.291Z,9.72
2023-04-18T18:37:23.636Z,9.83
2023-04-18T18:42:26.509Z,9.76
2023-04-18T18:47:32.052Z,9.84
2023-04-18T18:52:39.500Z,9.97
2023-04-18T18:57:45.318Z,9.84
2023-04-18T19:02:51.440Z,9.80
2023-04-18T19:07:57.596Z,9.33
2023-04-18T19:13:03.882Z,9.25
2023-04-18T19:18:09.661Z,9.27
2023-04-18T19:23:19.662Z,9.45
2023-04-18T19:33:45.298Z,9.51
2023-04-18T19:38:51.081Z,9.58
2023-04-18T19:44:00.217Z,9.56
2023-04-18T19:49:04.794Z,9.52
2023-04-18T19:54:15.218Z,9.49
2023-04-18T19:59:25.744Z,9.28
2023-04-18T20:04:29.206Z,9.25
2023-04-18T20:09:39.875Z,9.32
2023-04-18T20:14:45.125Z,9.14
2023-04-18T20:19:54.075Z,9.08
2023-04-18T20:24:58.203Z,9.07
2023-04-18T20:30:05.663Z,9.08
2023-04-18T20:35:13.833Z,9.30
2023-04-18T20:40:16.882Z,9.29
2023-04-18T20:45:19.836Z,9.15
2023-04-18T20:50:25.665Z,9.26
2023-04-18T20:55:32.690Z,9.00
2023-04-18T21:00:40.952Z,8.95
2023-04-18T21:05:44.247Z,9.15
2023-04-18T21:10:47.580Z,9.00
2023-04-18T21:15:56.755Z,8.80
2023-04-18T21:21:04.179Z,8.85
2023-04-18T21:26:13.909Z,8.66
2023-04-18T21:31:19.971Z,8.75
2023-04-18T21:36:28.777Z,8.97
2023-04-18T21:41:33.956Z,8.90
2023-04-18T21:46:36.853Z,9.02
2023-04-18T21:51:43.054Z,9.00
2023-04-18T21:56:47.957Z,9.15
2023-04-18T22:01:53.092Z,9.22
2023-04-18T22:06:59.097Z,9.01
2023-04-18T22:12:08.367Z,8.82
2023-04-18T22:17:18.879Z,8.78
